sensor_id;sensor_type;location;lat;lon;timestamp;temperature;humidity
10433;DHT22;5263;48.680;9.004;2023-02-15T00:01:19;-0.50;99.90
10433;DHT22;5263;48.680;9.004;2023-02-15T00:03:44;-0.40;99.90
10433;DHT22;5263;48.680;9.004;2023-02-15T00:06:10;-0.40;99.90
10433;DHT22;5263;48.680;9.004;2023-02-15T00:08:35;-0.50;99.90
10433;DHT22;5263;48.680;9.004;2023-02-15T00:11:12;-0.50;99.90
10433;DHT22;5263;48.680;9.004;2023-02-15T00:13:38;-0.40;99.90
10433;DHT22;5263;48.680;9.004;2023-02-15T00:16:09;-0.50;99.90
10433;DHT22;5263;48.680;9.004;2023-02-15T00:18:35;-0.50;99.90
10433;DHT22;5263;48.680;9.004;2023-02-15T00:21:06;-0.60;99.90
10433;DHT22;5263;48.680;9.004;2023-02-15T00:23:32;-0.70;99.90
10433;DHT22;5263;48.680;9.004;2023-02-15T00:26:08;-0.70;99.90
10433;DHT22;5263;48.680;9.004;2023-02-15T00:28:33;-0.60;99.90
10433;DHT22;5263;48.680;9.004;2023-02-15T00:31:10;-0.70;99.90
10433;DHT22;5263;48.680;9.004;2023-02-15T00:33:37;-0.70;99.90
10433;DHT22;5263;48.680;9.004;2023-02-15T00:36:05;-0.80;99.90
10433;DHT22;5263;48.680;9.004;2023-02-15T00:38:31;-0.90;99.90
10433;DHT22;5263;48.680;9.004;2023-02-15T00:40:59;-0.70;99.90
10433;DHT22;5263;48.680;9.004;2023-02-15T00:43:26;-0.70;99.90
10433;DHT22;5263;48.680;9.004;2023-02-15T00:45:52;-0.70;99.90
10433;DHT22;5263;48.680;9.004;2023-02-15T00:48:18;-0.90;99.90
10433;DHT22;5263;48.680;9.004;2023-02-15T00:50:50;-1.10;99.90
10433;DHT22;5263;48.680;9.004;2023-02-15T00:53:16;-1.00;99.90
10433;DHT22;5263;48.680;9.004;2023-02-15T00:55:42;-1.00;99.90
10433;DHT22;5263;48.680;9.004;2023-02-15T00:58:08;-1.10;99.90
10433;DHT22;5263;48.680;9.004;2023-02-15T01:00:34;-0.90;99.90
10433;DHT22;5263;48.680;9.004;2023-02-15T01:02:59;-1.00;99.90
10433;DHT22;5263;48.680;9.004;2023-02-15T01:05:25;-0.90;99.90
10433;DHT22;5263;48.680;9.004;2023-02-15T01:07:51;-0.90;99.90
10433;DHT22;5263;48.680;9.004;2023-02-15T01:10:16;-1.10;99.90
10433;DHT22;5263;48.680;9.004;2023-02-15T01:12:42;-1.10;99.90
10433;DHT22;5263;48.680;9.004;2023-02-15T01:15:08;-0.90;99.90
10433;DHT22;5263;48.680;9.004;2023-02-15T01:17:34;-1.00;99.90
10433;DHT22;5263;48.680;9.004;2023-02-15T01:20:00;-1.00;99.90
10433;DHT22;5263;48.680;9.004;2023-02-15T01:22:25;-1.10;99.90
10433;DHT22;5263;48.680;9.004;2023-02-15T01:24:51;-1.00;99.90
10433;DHT22;5263;48.680;9.004;2023-02-15T01:27:17;-1.00;99.90
10433;DHT22;5263;48.680;9.004;2023-02-15T01:29:43;-1.10;99.90
10433;DHT22;5263;48.680;9.004;2023-02-15T01:32:09;-1.10;99.90
10433;DHT22;5263;48.680;9.004;2023-02-15T01:34:34;-1.10;99.90
10433;DHT22;5263;48.680;9.004;2023-02-15T01:37:00;-1.20;99.90
10433;DHT22;5263;48.680;9.004;2023-02-15T01:39:25;-1.30;99.90
10433;DHT22;5263;48.680;9.004;2023-02-15T01:41:51;-1.20;99.90
10433;DHT22;5263;48.680;9.004;2023-02-15T01:47:10;-1.20;99.90
10433;DHT22;5263;48.680;9.004;2023-02-15T01:49:38;-1.20;99.90
10433;DHT22;5263;48.680;9.004;2023-02-15T01:52:07;-1.30;99.90
10433;DHT22;5263;48.680;9.004;2023-02-15T01:54:36;-1.30;99.90
10433;DHT22;5263;48.680;9.004;2023-02-15T01:57:10;-1.20;99.90
10433;DHT22;5263;48.680;9.004;2023-02-15T01:59:37;-1.10;99.90
10433;DHT22;5263;48.680;9.004;2023-02-15T02:02:05;-1.20;99.90
10433;DHT22;5263;48.680;9.004;2023-02-15T02:04:35;-1.10;99.90
10433;DHT22;5263;48.680;9.004;2023-02-15T02:07:03;-0.90;99.90
10433;DHT22;5263;48.680;9.004;2023-02-15T02:09:30;-0.80;99.90
10433;DHT22;5263;48.680;9.004;2023-02-15T02:11:55;-0.80;99.90
10433;DHT22;5263;48.680;9.004;2023-02-15T02:14:22;-0.80;99.90
10433;DHT22;5263;48.680;9.004;2023-02-15T02:17:09;-1.00;99.90
10433;DHT22;5263;48.680;9.004;2023-02-15T02:25:36;-0.80;99.90
10433;DHT22;5263;48.680;9.004;2023-02-15T02:31:00;-0.70;99.90
10433;DHT22;5263;48.680;9.004;2023-02-15T02:41:56;-0.60;99.90
10433;DHT22;5263;48.680;9.004;2023-02-15T02:44:46;-0.90;99.90
10433;DHT22;5263;48.680;9.004;2023-02-15T02:49:45;-1.00;99.90
10433;DHT22;5263;48.680;9.004;2023-02-15T02:52:46;-0.90;99.90
10433;DHT22;5263;48.680;9.004;2023-02-15T03:00:40;-1.40;99.90
10433;DHT22;5263;48.680;9.004;2023-02-15T03:03:13;-1.70;99.90
10433;DHT22;5263;48.680;9.004;2023-02-15T03:05:44;-1.50;99.90
10433;DHT22;5263;48.680;9.004;2023-02-15T03:08:11;-1.30;99.90
10433;DHT22;5263;48.680;9.004;2023-02-15T03:10:48;-1.20;99.90
10433;DHT22;5263;48.680;9.004;2023-02-15T03:13:14;-1.10;99.90
10433;DHT22;5263;48.680;9.004;2023-02-15T03:15:42;-1.30;99.90
10433;DHT22;5263;48.680;9.004;2023-02-15T03:18:33;-1.30;99.90
10433;DHT22;5263;48.680;9.004;2023-02-15T03:21:02;-1.30;99.90
10433;DHT22;5263;48.680;9.004;2023-02-15T03:23:30;-1.20;99.90
10433;DHT22;5263;48.680;9.004;2023-02-15T03:26:02;-1.40;99.90
10433;DHT22;5263;48.680;9.004;2023-02-15T03:28:36;-1.40;99.90
10433;DHT22;5263;48.680;9.004;2023-02-15T03:31:05;-1.40;99.90
10433;DHT22;5263;48.680;9.004;2023-02-15T03:33:33;-1.40;99.90
10433;DHT22;5263;48.680;9.004;2023-02-15T03:41:33;-1.40;99.90
10433;DHT22;5263;48.680;9.004;2023-02-15T03:44:15;-1.30;99.90
10433;DHT22;5263;48.680;9.004;2023-02-15T03:46:54;-1.20;99.90
10433;DHT22;5263;48.680;9.004;2023-02-15T03:49:25;-1.20;99.90
10433;DHT22;5263;48.680;9.004;2023-02-15T03:51:55;-1.20;99.90
10433;DHT22;5263;48.680;9.004;2023-02-15T03:54:29;-1.20;99.90
10433;DHT22;5263;48.680;9.004;2023-02-15T03:57:11;-1.20;99.90
10433;DHT22;5263;48.680;9.004;2023-02-15T03:59:57;-1.10;99.90
10433;DHT22;5263;48.680;9.004;2023-02-15T04:02:58;-1.40;99.90
10433;DHT22;5263;48.680;9.004;2023-02-15T04:05:28;-1.30;99.90
10433;DHT22;5263;48.680;9.004;2023-02-15T04:07:53;-1.30;99.90
10433;DHT22;5263;48.680;9.004;2023-02-15T04:10:19;-1.30;99.90
10433;DHT22;5263;48.680;9.004;2023-02-15T04:13:03;-1.40;99.90
10433;DHT22;5263;48.680;9.004;2023-02-15T04:15:29;-1.40;99.90
10433;DHT22;5263;48.680;9.004;2023-02-15T04:18:13;-1.40;99.90
10433;DHT22;5263;48.680;9.004;2023-02-15T04:20:38;-1.40;99.90
10433;DHT22;5263;48.680;9.004;2023-02-15T04:23:22;-1.70;99.90
10433;DHT22;5263;48.680;9.004;2023-02-15T04:26:06;-1.80;99.90
10433;DHT22;5263;48.680;9.004;2023-02-15T04:28:32;-1.60;99.90
10433;DHT22;5263;48.680;9.004;2023-02-15T04:30:57;-1.50;99.90
10433;DHT22;5263;48.680;9.004;2023-02-15T04:33:23;-1.50;99.90
10433;DHT22;5263;48.680;9.004;2023-02-15T04:35:49;-1.50;99.90
10433;DHT22;5263;48.680;9.004;2023-02-15T04:38:14;-1.50;99.90
10433;DHT22;5263;48.680;9.004;2023-02-15T04:40:40;-1.50;99.90
10433;DHT22;5263;48.680;9.004;2023-02-15T04:43:05;-1.40;99.90
10433;DHT22;5263;48.680;9.004;2023-02-15T04:45:31;-1.50;99.90
10433;DHT22;5263;48.680;9.004;2023-02-15T04:47:57;-1.40;99.90
10433;DHT22;5263;48.680;9.004;2023-02-15T04:50:22;-1.40;99.90
10433;DHT22;5263;48.680;9.004;2023-02-15T04:52:48;-1.40;99.90
10433;DHT22;5263;48.680;9.004;2023-02-15T04:55:14;-1.00;99.90
10433;DHT22;5263;48.680;9.004;2023-02-15T04:57:39;-0.60;99.90
10433;DHT22;5263;48.680;9.004;2023-02-15T05:00:05;-0.80;99.90
10433;DHT22;5263;48.680;9.004;2023-02-15T05:02:31;-0.60;99.90
10433;DHT22;5263;48.680;9.004;2023-02-15T05:04:57;-0.50;99.90
10433;DHT22;5263;48.680;9.004;2023-02-15T05:07:22;-0.80;99.90
10433;DHT22;5263;48.680;9.004;2023-02-15T05:09:48;-1.10;99.90
10433;DHT22;5263;48.680;9.004;2023-02-15T05:12:13;-1.00;99.90
10433;DHT22;5263;48.680;9.004;2023-02-15T05:14:39;-1.40;99.90
10433;DHT22;5263;48.680;9.004;2023-02-15T05:17:05;-1.40;99.90
10433;DHT22;5263;48.680;9.004;2023-02-15T05:19:30;-1.50;99.90
10433;DHT22;5263;48.680;9.004;2023-02-15T05:21:56;-1.50;99.90
10433;DHT22;5263;48.680;9.004;2023-02-15T05:24:21;-1.60;99.90
10433;DHT22;5263;48.680;9.004;2023-02-15T05:27:06;-1.50;99.90
10433;DHT22;5263;48.680;9.004;2023-02-15T05:29:50;-1.50;99.90
10433;DHT22;5263;48.680;9.004;2023-02-15T05:32:15;-1.50;99.90
10433;DHT22;5263;48.680;9.004;2023-02-15T05:34:41;-1.60;99.90
10433;DHT22;5263;48.680;9.004;2023-02-15T05:37:07;-1.40;99.90
10433;DHT22;5263;48.680;9.004;2023-02-15T05:39:33;-1.40;99.90
10433;DHT22;5263;48.680;9.004;2023-02-15T05:41:59;-1.50;99.90
10433;DHT22;5263;48.680;9.004;2023-02-15T05:44:25;-1.50;99.90
10433;DHT22;5263;48.680;9.004;2023-02-15T05:46:51;-1.40;99.90
10433;DHT22;5263;48.680;9.004;2023-02-15T05:49:16;-1.50;99.90
10433;DHT22;5263;48.680;9.004;2023-02-15T05:51:42;-1.60;99.90
10433;DHT22;5263;48.680;9.004;2023-02-15T05:54:07;-1.70;99.90
10433;DHT22;5263;48.680;9.004;2023-02-15T05:56:33;-1.60;99.90
10433;DHT22;5263;48.680;9.004;2023-02-15T05:58:59;-1.70;99.90
10433;DHT22;5263;48.680;9.004;2023-02-15T06:01:24;-1.70;99.90
10433;DHT22;5263;48.680;9.004;2023-02-15T06:03:50;-1.80;99.90
10433;DHT22;5263;48.680;9.004;2023-02-15T06:06:16;-1.80;99.90
10433;DHT22;5263;48.680;9.004;2023-02-15T06:08:42;-1.90;99.90
10433;DHT22;5263;48.680;9.004;2023-02-15T06:11:08;-1.80;99.90
10433;DHT22;5263;48.680;9.004;2023-02-15T06:13:34;-1.80;99.90
10433;DHT22;5263;48.680;9.004;2023-02-15T06:16:00;-1.80;99.90
10433;DHT22;5263;48.680;9.004;2023-02-15T06:18:25;-1.70;99.90
10433;DHT22;5263;48.680;9.004;2023-02-15T06:20:52;-1.80;99.90
10433;DHT22;5263;48.680;9.004;2023-02-15T06:23:18;-2.00;99.90
10433;DHT22;5263;48.680;9.004;2023-02-15T06:25:45;-2.20;99.90
10433;DHT22;5263;48.680;9.004;2023-02-15T06:28:11;-2.20;99.90
10433;DHT22;5263;48.680;9.004;2023-02-15T06:30:36;-2.10;99.90
10433;DHT22;5263;48.680;9.004;2023-02-15T06:33:02;-2.10;99.90
10433;DHT22;5263;48.680;9.004;2023-02-15T06:35:28;-2.00;99.90
10433;DHT22;5263;48.680;9.004;2023-02-15T06:37:53;-2.10;99.90
10433;DHT22;5263;48.680;9.004;2023-02-15T06:40:19;-2.00;99.90
10433;DHT22;5263;48.680;9.004;2023-02-15T06:42:45;-2.00;99.90
10433;DHT22;5263;48.680;9.004;2023-02-15T06:45:11;-2.00;99.90
10433;DHT22;5263;48.680;9.004;2023-02-15T06:47:37;-1.80;99.90
10433;DHT22;5263;48.680;9.004;2023-02-15T06:50:04;-1.90;99.90
10433;DHT22;5263;48.680;9.004;2023-02-15T06:52:29;-1.90;99.90
10433;DHT22;5263;48.680;9.004;2023-02-15T06:54:55;-1.80;99.90
10433;DHT22;5263;48.680;9.004;2023-02-15T06:57:21;-1.80;99.90
10433;DHT22;5263;48.680;9.004;2023-02-15T06:59:46;-2.00;99.90
10433;DHT22;5263;48.680;9.004;2023-02-15T07:02:12;-1.80;99.90
10433;DHT22;5263;48.680;9.004;2023-02-15T07:04:38;-1.80;99.90
10433;DHT22;5263;48.680;9.004;2023-02-15T07:07:08;-1.70;99.90
10433;DHT22;5263;48.680;9.004;2023-02-15T07:09:33;-1.50;99.90
10433;DHT22;5263;48.680;9.004;2023-02-15T07:11:59;-1.70;99.90
10433;DHT22;5263;48.680;9.004;2023-02-15T07:14:43;-1.70;99.90
10433;DHT22;5263;48.680;9.004;2023-02-15T07:17:08;-1.60;99.90
10433;DHT22;5263;48.680;9.004;2023-02-15T07:19:34;-1.50;99.90
10433;DHT22;5263;48.680;9.004;2023-02-15T07:22:00;-1.40;99.90
10433;DHT22;5263;48.680;9.004;2023-02-15T07:24:26;-1.30;99.90
10433;DHT22;5263;48.680;9.004;2023-02-15T07:26:52;-1.30;99.90
10433;DHT22;5263;48.680;9.004;2023-02-15T07:29:17;-1.10;99.90
10433;DHT22;5263;48.680;9.004;2023-02-15T07:31:43;-1.00;99.90
10433;DHT22;5263;48.680;9.004;2023-02-15T07:34:10;-0.90;99.90
10433;DHT22;5263;48.680;9.004;2023-02-15T07:36:36;-0.70;99.90
10433;DHT22;5263;48.680;9.004;2023-02-15T07:39:02;-0.80;99.90
10433;DHT22;5263;48.680;9.004;2023-02-15T07:41:27;-0.60;99.90
10433;DHT22;5263;48.680;9.004;2023-02-15T07:43:53;-0.70;99.90
10433;DHT22;5263;48.680;9.004;2023-02-15T07:46:18;-0.60;99.90
10433;DHT22;5263;48.680;9.004;2023-02-15T07:48:46;-0.40;99.90
10433;DHT22;5263;48.680;9.004;2023-02-15T07:51:12;-0.60;99.90
10433;DHT22;5263;48.680;9.004;2023-02-15T07:53:38;-0.80;99.90
10433;DHT22;5263;48.680;9.004;2023-02-15T07:56:07;-0.60;99.90
10433;DHT22;5263;48.680;9.004;2023-02-15T07:58:33;-0.40;99.90
10433;DHT22;5263;48.680;9.004;2023-02-15T08:01:26;-0.30;99.90
10433;DHT22;5263;48.680;9.004;2023-02-15T08:03:53;-0.10;99.90
10433;DHT22;5263;48.680;9.004;2023-02-15T08:06:20;-0.10;99.90
10433;DHT22;5263;48.680;9.004;2023-02-15T08:08:46;0.10;99.90
10433;DHT22;5263;48.680;9.004;2023-02-15T08:13:55;0.60;99.90
10433;DHT22;5263;48.680;9.004;2023-02-15T08:19:10;0.80;99.90
10433;DHT22;5263;48.680;9.004;2023-02-15T08:21:39;0.70;99.90
10433;DHT22;5263;48.680;9.004;2023-02-15T08:24:05;0.80;99.90
10433;DHT22;5263;48.680;9.004;2023-02-15T08:26:32;0.90;99.90
10433;DHT22;5263;48.680;9.004;2023-02-15T08:28:58;1.20;99.90
10433;DHT22;5263;48.680;9.004;2023-02-15T08:31:24;1.30;99.90
10433;DHT22;5263;48.680;9.004;2023-02-15T08:33:51;1.40;99.90
10433;DHT22;5263;48.680;9.004;2023-02-15T08:36:20;1.40;99.90
10433;DHT22;5263;48.680;9.004;2023-02-15T08:38:46;1.50;99.90
10433;DHT22;5263;48.680;9.004;2023-02-15T08:41:30;1.60;99.90
10433;DHT22;5263;48.680;9.004;2023-02-15T08:43:58;1.80;99.90
10433;DHT22;5263;48.680;9.004;2023-02-15T08:46:26;1.90;99.90
10433;DHT22;5263;48.680;9.004;2023-02-15T08:48:52;2.00;99.90
10433;DHT22;5263;48.680;9.004;2023-02-15T08:51:23;2.20;99.90
10433;DHT22;5263;48.680;9.004;2023-02-15T08:53:51;2.50;99.90
10433;DHT22;5263;48.680;9.004;2023-02-15T08:56:19;2.60;99.90
10433;DHT22;5263;48.680;9.004;2023-02-15T08:58:45;2.80;99.90
10433;DHT22;5263;48.680;9.004;2023-02-15T09:01:20;2.80;99.90
10433;DHT22;5263;48.680;9.004;2023-02-15T09:03:47;2.90;99.90
10433;DHT22;5263;48.680;9.004;2023-02-15T09:06:14;3.00;99.90
10433;DHT22;5263;48.680;9.004;2023-02-15T09:08:40;3.10;99.90
10433;DHT22;5263;48.680;9.004;2023-02-15T09:11:10;3.30;99.90
10433;DHT22;5263;48.680;9.004;2023-02-15T09:13:37;3.70;99.90
10433;DHT22;5263;48.680;9.004;2023-02-15T09:16:07;3.70;99.90
10433;DHT22;5263;48.680;9.004;2023-02-15T09:18:37;3.80;99.90
10433;DHT22;5263;48.680;9.004;2023-02-15T09:21:08;3.90;99.90
10433;DHT22;5263;48.680;9.004;2023-02-15T09:23:34;4.00;99.90
10433;DHT22;5263;48.680;9.004;2023-02-15T09:26:08;4.10;99.90
10433;DHT22;5263;48.680;9.004;2023-02-15T09:28:35;4.40;99.90
10433;DHT22;5263;48.680;9.004;2023-02-15T09:31:21;4.60;99.90
10433;DHT22;5263;48.680;9.004;2023-02-15T09:33:48;4.80;99.90
10433;DHT22;5263;48.680;9.004;2023-02-15T09:36:17;5.00;99.90
10433;DHT22;5263;48.680;9.004;2023-02-15T09:38:44;5.10;99.90
10433;DHT22;5263;48.680;9.004;2023-02-15T09:58:26;6.80;99.90
10433;DHT22;5263;48.680;9.004;2023-02-15T10:06:45;7.50;99.90
10433;DHT22;5263;48.680;9.004;2023-02-15T10:09:27;7.70;99.90
10433;DHT22;5263;48.680;9.004;2023-02-15T10:11:58;8.00;99.90
10433;DHT22;5263;48.680;9.004;2023-02-15T10:20:29;9.20;99.90
10433;DHT22;5263;48.680;9.004;2023-02-15T10:26:23;13.00;99.90
10433;DHT22;5263;48.680;9.004;2023-02-15T10:28:57;15.80;95.20
10433;DHT22;5263;48.680;9.004;2023-02-15T10:34:18;23.00;60.80
10433;DHT22;5263;48.680;9.004;2023-02-15T10:47:27;19.00;54.20
10433;DHT22;5263;48.680;9.004;2023-02-15T10:50:16;18.90;56.90
10433;DHT22;5263;48.680;9.004;2023-02-15T10:55:33;20.90;51.80
10433;DHT22;5263;48.680;9.004;2023-02-15T10:58:17;21.90;52.80
10433;DHT22;5263;48.680;9.004;2023-02-15T11:06:07;23.00;47.90
10433;DHT22;5263;48.680;9.004;2023-02-15T11:08:45;21.90;48.60
10433;DHT22;5263;48.680;9.004;2023-02-15T11:11:33;22.80;47.40
10433;DHT22;5263;48.680;9.004;2023-02-15T11:14:03;24.80;45.70
10433;DHT22;5263;48.680;9.004;2023-02-15T11:16:34;26.70;43.50
10433;DHT22;5263;48.680;9.004;2023-02-15T11:19:17;26.70;40.20
10433;DHT22;5263;48.680;9.004;2023-02-15T11:21:49;26.50;39.80
10433;DHT22;5263;48.680;9.004;2023-02-15T11:24:19;24.80;42.20
10433;DHT22;5263;48.680;9.004;2023-02-15T11:30:02;29.10;37.20
10433;DHT22;5263;48.680;9.004;2023-02-15T11:32:40;31.80;32.80
10433;DHT22;5263;48.680;9.004;2023-02-15T11:37:53;28.80;31.40
10433;DHT22;5263;48.680;9.004;2023-02-15T11:40:42;26.00;35.90
10433;DHT22;5263;48.680;9.004;2023-02-15T11:43:28;24.20;37.00
10433;DHT22;5263;48.680;9.004;2023-02-15T11:45:56;22.80;40.40
10433;DHT22;5263;48.680;9.004;2023-02-15T11:48:30;23.40;41.00
10433;DHT22;5263;48.680;9.004;2023-02-15T11:50:56;24.60;39.50
10433;DHT22;5263;48.680;9.004;2023-02-15T11:53:23;25.50;38.90
10433;DHT22;5263;48.680;9.004;2023-02-15T11:55:50;27.10;35.60
10433;DHT22;5263;48.680;9.004;2023-02-15T12:01:24;26.00;39.20
10433;DHT22;5263;48.680;9.004;2023-02-15T12:03:51;27.40;35.00
10433;DHT22;5263;48.680;9.004;2023-02-15T12:06:25;24.70;39.20
10433;DHT22;5263;48.680;9.004;2023-02-15T12:11:44;25.40;38.00
10433;DHT22;5263;48.680;9.004;2023-02-15T12:14:12;25.00;38.70
10433;DHT22;5263;48.680;9.004;2023-02-15T12:16:48;25.80;37.80
10433;DHT22;5263;48.680;9.004;2023-02-15T12:19:36;24.70;37.40
10433;DHT22;5263;48.680;9.004;2023-02-15T12:22:04;27.90;35.00
10433;DHT22;5263;48.680;9.004;2023-02-15T12:24:32;29.40;32.20
10433;DHT22;5263;48.680;9.004;2023-02-15T12:29:46;31.20;30.10
10433;DHT22;5263;48.680;9.004;2023-02-15T12:32:23;27.40;32.00
10433;DHT22;5263;48.680;9.004;2023-02-15T12:34:52;26.60;33.60
10433;DHT22;5263;48.680;9.004;2023-02-15T12:37:23;27.70;33.70
10433;DHT22;5263;48.680;9.004;2023-02-15T12:39:58;28.70;33.80
10433;DHT22;5263;48.680;9.004;2023-02-15T12:42:30;28.50;32.00
10433;DHT22;5263;48.680;9.004;2023-02-15T12:45:22;27.90;32.40
10433;DHT22;5263;48.680;9.004;2023-02-15T12:48:15;25.80;34.70
10433;DHT22;5263;48.680;9.004;2023-02-15T12:50:46;25.60;34.90
10433;DHT22;5263;48.680;9.004;2023-02-15T12:53:31;29.40;32.30
10433;DHT22;5263;48.680;9.004;2023-02-15T12:56:04;31.50;29.30
10433;DHT22;5263;48.680;9.004;2023-02-15T12:58:35;33.30;28.50
10433;DHT22;5263;48.680;9.004;2023-02-15T13:01:14;30.40;28.10
10433;DHT22;5263;48.680;9.004;2023-02-15T13:04:04;29.70;28.50
10433;DHT22;5263;48.680;9.004;2023-02-15T13:06:33;31.30;26.60
10433;DHT22;5263;48.680;9.004;2023-02-15T13:09:20;33.60;25.40
10433;DHT22;5263;48.680;9.004;2023-02-15T13:11:46;32.20;25.60
10433;DHT22;5263;48.680;9.004;2023-02-15T13:14:38;28.30;29.40
10433;DHT22;5263;48.680;9.004;2023-02-15T13:17:04;27.90;30.10
10433;DHT22;5263;48.680;9.004;2023-02-15T13:19:35;28.70;29.30
10433;DHT22;5263;48.680;9.004;2023-02-15T13:22:06;27.60;29.60
10433;DHT22;5263;48.680;9.004;2023-02-15T13:24:40;27.30;30.20
10433;DHT22;5263;48.680;9.004;2023-02-15T13:27:12;24.70;32.20
10433;DHT22;5263;48.680;9.004;2023-02-15T13:29:40;25.00;33.70
10433;DHT22;5263;48.680;9.004;2023-02-15T13:34:45;23.30;36.20
10433;DHT22;5263;48.680;9.004;2023-02-15T13:37:21;23.10;36.10
10433;DHT22;5263;48.680;9.004;2023-02-15T13:39:58;22.70;37.80
10433;DHT22;5263;48.680;9.004;2023-02-15T13:42:38;22.80;35.80
10433;DHT22;5263;48.680;9.004;2023-02-15T13:45:39;23.10;37.80
10433;DHT22;5263;48.680;9.004;2023-02-15T13:51:01;25.10;33.40
10433;DHT22;5263;48.680;9.004;2023-02-15T13:59:46;22.60;36.60
10433;DHT22;5263;48.680;9.004;2023-02-15T14:02:37;21.90;38.40
10433;DHT22;5263;48.680;9.004;2023-02-15T14:13:57;22.50;41.00
10433;DHT22;5263;48.680;9.004;2023-02-15T14:16:31;21.90;40.40
10433;DHT22;5263;48.680;9.004;2023-02-15T14:21:34;20.30;41.80
10433;DHT22;5263;48.680;9.004;2023-02-15T14:24:30;20.20;43.00
10433;DHT22;5263;48.680;9.004;2023-02-15T14:30:00;21.50;41.90
10433;DHT22;5263;48.680;9.004;2023-02-15T14:32:33;21.80;41.20
10433;DHT22;5263;48.680;9.004;2023-02-15T14:35:05;21.10;40.40
10433;DHT22;5263;48.680;9.004;2023-02-15T14:49:08;20.00;42.50
10433;DHT22;5263;48.680;9.004;2023-02-15T14:57:26;19.70;43.40
10433;DHT22;5263;48.680;9.004;2023-02-15T15:02:03;18.30;46.00
10433;DHT22;5263;48.680;9.004;2023-02-15T15:07:07;18.30;47.30
10433;DHT22;5263;48.680;9.004;2023-02-15T15:09:36;18.70;47.40
10433;DHT22;5263;48.680;9.004;2023-02-15T15:14:47;17.30;50.30
10433;DHT22;5263;48.680;9.004;2023-02-15T15:20:10;16.70;51.90
10433;DHT22;5263;48.680;9.004;2023-02-15T15:22:42;17.10;51.00
10433;DHT22;5263;48.680;9.004;2023-02-15T15:28:08;18.00;50.40
10433;DHT22;5263;48.680;9.004;2023-02-15T15:33:27;17.80;49.10
10433;DHT22;5263;48.680;9.004;2023-02-15T15:36:30;17.60;50.00
10433;DHT22;5263;48.680;9.004;2023-02-15T15:42:06;17.80;49.70
10433;DHT22;5263;48.680;9.004;2023-02-15T15:50:16;17.60;48.80
10433;DHT22;5263;48.680;9.004;2023-02-15T15:52:57;17.40;48.60
10433;DHT22;5263;48.680;9.004;2023-02-15T15:55:26;17.60;48.40
10433;DHT22;5263;48.680;9.004;2023-02-15T15:57:54;17.60;47.90
10433;DHT22;5263;48.680;9.004;2023-02-15T16:00:44;17.40;47.60
10433;DHT22;5263;48.680;9.004;2023-02-15T16:03:21;15.90;48.50
10433;DHT22;5263;48.680;9.004;2023-02-15T16:05:47;15.60;49.60
10433;DHT22;5263;48.680;9.004;2023-02-15T16:08:35;15.20;50.40
10433;DHT22;5263;48.680;9.004;2023-02-15T16:11:21;14.70;50.40
10433;DHT22;5263;48.680;9.004;2023-02-15T16:13:47;14.30;50.80
10433;DHT22;5263;48.680;9.004;2023-02-15T16:16:20;13.90;51.40
10433;DHT22;5263;48.680;9.004;2023-02-15T16:18:47;13.20;51.20
10433;DHT22;5263;48.680;9.004;2023-02-15T16:21:28;12.80;52.90
10433;DHT22;5263;48.680;9.004;2023-02-15T16:24:08;12.20;54.70
10433;DHT22;5263;48.680;9.004;2023-02-15T16:29:01;12.00;56.20
10433;DHT22;5263;48.680;9.004;2023-02-15T16:31:27;11.70;56.80
10433;DHT22;5263;48.680;9.004;2023-02-15T16:33:54;11.40;58.00
10433;DHT22;5263;48.680;9.004;2023-02-15T16:36:21;11.20;58.70
10433;DHT22;5263;48.680;9.004;2023-02-15T16:43:49;10.90;61.90
10433;DHT22;5263;48.680;9.004;2023-02-15T16:48:52;10.60;63.30
10433;DHT22;5263;48.680;9.004;2023-02-15T16:51:22;10.50;64.50
10433;DHT22;5263;48.680;9.004;2023-02-15T16:53:48;10.40;65.30
10433;DHT22;5263;48.680;9.004;2023-02-15T16:56:15;10.30;66.00
10433;DHT22;5263;48.680;9.004;2023-02-15T16:58:44;10.10;66.50
10433;DHT22;5263;48.680;9.004;2023-02-15T17:01:13;10.00;68.20
10433;DHT22;5263;48.680;9.004;2023-02-15T17:03:40;10.00;69.10
10433;DHT22;5263;48.680;9.004;2023-02-15T17:06:27;9.80;70.60
10433;DHT22;5263;48.680;9.004;2023-02-15T17:09:04;9.60;72.30
10433;DHT22;5263;48.680;9.004;2023-02-15T17:11:37;9.30;72.90
10433;DHT22;5263;48.680;9.004;2023-02-15T17:19:52;9.00;77.80
10433;DHT22;5263;48.680;9.004;2023-02-15T17:22:24;8.30;79.80
10433;DHT22;5263;48.680;9.004;2023-02-15T17:24:58;7.90;83.90
10433;DHT22;5263;48.680;9.004;2023-02-15T17:27:26;7.50;88.00
10433;DHT22;5263;48.680;9.004;2023-02-15T17:30:01;7.40;90.40
10433;DHT22;5263;48.680;9.004;2023-02-15T17:32:30;6.90;92.90
10433;DHT22;5263;48.680;9.004;2023-02-15T17:35:06;6.90;95.10
10433;DHT22;5263;48.680;9.004;2023-02-15T17:40:27;7.30;98.20
10433;DHT22;5263;48.680;9.004;2023-02-15T17:42:53;7.30;98.20
10433;DHT22;5263;48.680;9.004;2023-02-15T17:45:20;7.20;98.80
10433;DHT22;5263;48.680;9.004;2023-02-15T17:47:48;7.10;99.90
10433;DHT22;5263;48.680;9.004;2023-02-15T17:50:22;7.60;99.90
10433;DHT22;5263;48.680;9.004;2023-02-15T17:52:49;7.00;99.90
10433;DHT22;5263;48.680;9.004;2023-02-15T17:55:17;6.90;99.90
10433;DHT22;5263;48.680;9.004;2023-02-15T18:00:38;6.40;99.90
10433;DHT22;5263;48.680;9.004;2023-02-15T18:03:24;6.10;99.90
10433;DHT22;5263;48.680;9.004;2023-02-15T18:06:09;6.00;99.90
10433;DHT22;5263;48.680;9.004;2023-02-15T18:08:55;6.00;99.90
10433;DHT22;5263;48.680;9.004;2023-02-15T18:11:39;5.80;99.90
10433;DHT22;5263;48.680;9.004;2023-02-15T18:14:06;5.50;99.90
10433;DHT22;5263;48.680;9.004;2023-02-15T18:16:38;5.30;99.90
10433;DHT22;5263;48.680;9.004;2023-02-15T18:19:10;5.20;99.90
10433;DHT22;5263;48.680;9.004;2023-02-15T18:21:38;5.40;99.90
10433;DHT22;5263;48.680;9.004;2023-02-15T18:24:04;5.40;99.90
10433;DHT22;5263;48.680;9.004;2023-02-15T18:26:29;5.40;99.90
10433;DHT22;5263;48.680;9.004;2023-02-15T18:28:55;5.10;99.90
10433;DHT22;5263;48.680;9.004;2023-02-15T18:31:21;5.20;99.90
10433;DHT22;5263;48.680;9.004;2023-02-15T18:33:51;5.30;99.90
10433;DHT22;5263;48.680;9.004;2023-02-15T18:36:28;5.40;99.90
10433;DHT22;5263;48.680;9.004;2023-02-15T18:38:57;5.10;99.90
10433;DHT22;5263;48.680;9.004;2023-02-15T18:41:24;5.10;99.90
10433;DHT22;5263;48.680;9.004;2023-02-15T18:43:50;5.00;99.90
10433;DHT22;5263;48.680;9.004;2023-02-15T18:46:18;4.80;99.90
10433;DHT22;5263;48.680;9.004;2023-02-15T18:48:44;4.90;99.90
10433;DHT22;5263;48.680;9.004;2023-02-15T18:51:22;5.00;99.90
10433;DHT22;5263;48.680;9.004;2023-02-15T18:53:50;5.00;99.90
10433;DHT22;5263;48.680;9.004;2023-02-15T18:56:18;4.90;99.90
10433;DHT22;5263;48.680;9.004;2023-02-15T18:58:45;4.90;99.90
10433;DHT22;5263;48.680;9.004;2023-02-15T19:01:19;4.70;99.90
10433;DHT22;5263;48.680;9.004;2023-02-15T19:03:47;4.70;99.90
10433;DHT22;5263;48.680;9.004;2023-02-15T19:06:14;4.50;99.90
10433;DHT22;5263;48.680;9.004;2023-02-15T19:08:45;4.50;99.90
10433;DHT22;5263;48.680;9.004;2023-02-15T19:11:20;4.40;99.90
10433;DHT22;5263;48.680;9.004;2023-02-15T19:13:48;4.40;99.90
10433;DHT22;5263;48.680;9.004;2023-02-15T19:16:32;4.40;99.90
10433;DHT22;5263;48.680;9.004;2023-02-15T19:18:59;4.40;99.90
10433;DHT22;5263;48.680;9.004;2023-02-15T19:21:26;4.40;99.90
10433;DHT22;5263;48.680;9.004;2023-02-15T19:23:59;4.50;99.90
10433;DHT22;5263;48.680;9.004;2023-02-15T19:26:26;4.60;99.90
10433;DHT22;5263;48.680;9.004;2023-02-15T19:28:58;4.40;99.90